Latest Weather Observations for Gove Airport

IDD60801

Issued at 11:31 pm CST Tuesday 12 December 2017 (issued every 30 minutes, with the page automatically refreshed every 10 minutes)

About weather observations | Map of weather stations | Latest weather observations for NT | Other Formats
Station Details ID: 014508 Name: GOVE AIRPORT Lat: -12.27 Lon: 136.82 Height: 51.6 m
Data from the previous 72 hours. | See also: Recent months at Gove Airport
Date/Time
CST
Temp
°C
App
Temp
°C
Dew
Point
°C
Rel
Hum
%
Delta-T
°C
Wind Press
QNH
hPa
Press
MSL
hPa
Rain since
9am
mm
Dir  Spd
km/h
Gust
km/h
Spd
kts
Gust
kts
12/11:00pm 28.4 32.4 23.8 76 3.2 NE 9 11 5 6 1009.4 1009.0 0.0
12/10:30pm 28.7 34.4 23.8 75 3.4 CALM 0 0 0 0 1009.6 1009.2 0.0
12/10:00pm 28.9 34.6 23.7 73 3.6 CALM 0 4 0 2 1009.3 1008.9 0.0
12/09:30pm 28.9 32.9 23.7 73 3.6 E 9 11 5 6 1008.9 1008.5 0.0
12/09:00pm 29.0 33.3 23.6 72 3.7 NE 7 9 4 5 1008.7 1008.3 0.0
12/08:30pm 29.2 33.1 23.6 72 3.9 NE 9 13 5 7 1008.4 1008.0 0.0
12/08:00pm 29.3 33.5 23.5 71 4.0 NNE 7 9 4 5 1008.2 1007.8 0.0
12/07:30pm 29.5 33.3 23.4 69 4.2 NNE 9 13 5 7 1007.9 1007.5 0.0
12/07:00pm 30.0 33.7 23.2 67 4.7 NE 9 13 5 7 1008.0 1007.6 0.0
12/06:30pm 30.2 33.4 23.1 65 4.9 NE 11 13 6 7 1007.8 1007.4 0.0
12/06:00pm 31.2 33.9 22.8 61 5.8 ENE 13 17 7 9 1007.6 1007.2 0.0
12/05:30pm 31.6 33.9 22.7 59 6.1 ENE 15 22 8 12 1007.6 1007.2 0.0
12/05:00pm 32.1 33.9 22.5 57 6.6 E 17 24 9 13 1007.7 1007.3 0.0
12/04:30pm 32.0 33.9 22.7 58 6.4 ENE 17 22 9 12 1007.8 1007.4 0.0
12/04:00pm 32.3 33.9 22.2 55 6.9 ENE 17 22 9 12 1007.7 1007.3 0.0
12/03:30pm 32.5 34.3 22.6 56 6.8 E 17 26 9 14 1007.9 1007.5 0.0
12/03:00pm 33.4 34.7 22.3 52 7.6 ENE 19 28 10 15 1008.2 1007.8 0.0
12/02:30pm 32.6 33.7 21.9 53 7.3 E 19 26 10 14 1008.4 1008.0 0.0
12/02:00pm 33.7 34.1 21.0 47 8.6 NE 20 30 11 16 1008.8 1008.4 0.0
12/01:30pm 33.1 33.6 20.9 48 8.2 NNE 19 28 10 15 1009.0 1008.6 0.0
12/01:00pm 33.7 33.8 19.1 42 9.6 NNE 17 30 9 16 1009.3 1008.9 0.0
12/12:30pm 34.2 34.8 19.4 41 9.8 N 15 28 8 15 1009.7 1009.3 0.0
12/12:00pm 34.6 34.9 19.5 41 10.0 NNE 17 26 9 14 1010.1 1009.7 0.0
12/11:30am 34.0 35.7 21.7 48 8.4 N 15 24 8 13 1010.3 1009.9 0.0
12/11:00am 33.3 34.2 19.2 43 9.3 NE 13 20 7 11 1010.7 1010.3 0.0
12/10:30am 32.9 36.1 22.4 54 7.2 N 9 17 5 9 1011.0 1010.6 0.0
12/10:00am 33.0 36.5 22.2 53 7.4 NNW 7 17 4 9 1011.3 1010.9 0.0
12/09:30am 31.8 35.2 23.3 60 5.9 NNE 11 17 6 9 1011.4 1011.0 0.0
12/09:00am 31.3 36.1 24.5 67 4.8 W 7 13 4 7 1011.3 1010.9 0.0
12/08:30am 31.3 36.0 24.3 66 4.9 WSW 7 11 4 6 1011.0 1010.6 0.0
12/08:00am 30.0 34.9 24.7 73 3.7 SW 7 9 4 5 1011.0 1010.6 0.0
12/07:30am 29.8 34.4 24.7 74 3.6 NW 9 15 5 8 1010.5 1010.1 0.0
12/07:00am 27.8 32.6 24.5 82 2.3 SSW 7 9 4 5 1010.1 1009.7 0.0
12/06:30am 27.0 32.5 24.7 87 1.6 WNW 4 7 2 4 1009.6 1009.2 0.0
12/06:00am 26.4 31.2 24.5 89 1.3 WNW 7 13 4 7 1009.1 1008.7 0.0
12/05:30am 25.9 30.6 24.3 91 1.1 NNW 7 9 4 5 1008.7 1008.3 0.0
12/05:00am 25.5 31.3 23.9 91 1.1 CALM 0 0 0 0 1008.7 1008.3 0.0
12/04:30am 26.2 31.1 24.3 89 1.3 NW 6 6 3 3 1008.4 1008.0 0.0
12/04:00am 25.9 30.6 24.3 91 1.1 NW 7 9 4 5 1008.3 1007.9 0.0
12/03:30am 25.7 31.7 24.3 92 1.0 CALM 0 0 0 0 1008.3 1007.9 0.0
12/03:00am 25.7 31.3 23.5 88 1.5 CALM 0 4 0 2 1008.5 1008.1 0.0
12/02:30am 26.3 31.2 24.3 89 1.4 NW 6 7 3 4 1008.5 1008.1 0.0
12/02:00am 26.4 32.4 24.2 88 1.5 CALM 0 0 0 0 1008.3 1007.9 0.0
12/01:30am 26.5 32.5 24.2 87 1.6 CALM 0 0 0 0 1008.6 1008.2 0.0
12/01:00am 27.1 31.7 24.2 84 2.0 N 7 9 4 5 1009.0 1008.6 0.0
12/12:30am 26.9 32.9 24.3 86 1.8 CALM 0 0 0 0 1009.6 1009.2 0.0
12/12:00am 27.4 33.4 24.2 83 2.2 CALM 0 0 0 0 1010.0 1009.6 0.0
 
Date/Time
CST
Temp
°C
App
Temp
°C
Dew
Point
°C
Rel
Hum
%
Delta-T
°C
Wind Press
QNH
hPa
Press
MSL
hPa
Rain since
9am
mm
Dir  Spd
km/h
Gust
km/h
Spd
kts
Gust
kts
11/11:30pm 28.0 34.0 24.3 80 2.6 CALM 0 6 0 3 1010.5 1010.1 0.0
11/11:00pm 28.2 32.8 24.2 79 2.8 NNE 7 9 4 5 1010.4 1010.0 0.0
11/10:30pm 28.3 32.9 24.1 78 2.9 NE 7 11 4 6 1010.4 1010.0 0.0
11/10:00pm 28.3 34.3 24.3 79 2.8 CALM 0 0 0 0 1010.3 1009.9 0.0
11/09:30pm 28.8 34.8 24.2 76 3.2 CALM 0 0 0 0 1010.1 1009.7 0.0
11/09:00pm 28.9 33.4 24.0 75 3.4 ENE 7 9 4 5 1010.0 1009.6 0.0
11/08:30pm 29.1 33.9 24.1 74 3.5 NE 6 7 3 4 1009.9 1009.5 0.0
11/08:00pm 29.3 33.7 23.8 72 3.8 ENE 7 9 4 5 1009.4 1009.0 0.0
11/07:30pm 29.5 34.0 23.9 72 3.9 ENE 7 9 4 5 1009.1 1008.7 0.0
11/07:00pm 29.6 33.9 23.7 70 4.1 E 7 13 4 7 1008.9 1008.5 0.0
11/06:30pm 29.9 33.5 23.7 69 4.3 ENE 11 13 6 7 1008.9 1008.5 0.0
11/06:00pm 30.4 33.8 23.3 66 4.9 ENE 11 15 6 8 1008.6 1008.2 0.0
11/05:30pm 31.3 33.8 23.2 62 5.6 E 15 20 8 11 1007.9 1007.5 0.0
11/05:00pm 31.6 33.9 22.7 59 6.1 NE 15 20 8 11 1008.0 1007.6 0.0
11/04:30pm 32.0 34.4 22.9 58 6.3 NNE 15 20 8 11 1008.0 1007.6 0.0
11/04:00pm 32.4 34.4 22.2 55 7.0 NNE 15 19 8 10 1008.0 1007.6 0.0
11/03:30pm 33.0 35.1 22.4 53 7.3 NE 15 24 8 13 1008.0 1007.6 0.0
11/03:00pm 33.3 34.5 22.2 52 7.6 NE 19 24 10 13 1008.0 1007.6 0.0
11/02:30pm 32.6 33.6 21.7 52 7.4 NE 19 26 10 14 1008.2 1007.8 0.0
11/02:00pm 33.4 34.1 21.6 50 8.0 NNE 20 26 11 14 1008.4 1008.0 0.0
11/01:30pm 32.7 33.1 20.6 49 8.1 NE 19 28 10 15 1009.0 1008.6 0.0
11/01:00pm 33.2 33.6 20.9 48 8.3 NNE 20 30 11 16 1009.6 1009.2 0.0
11/12:30pm 33.4 33.5 20.0 45 8.9 NE 19 28 10 15 1010.1 1009.7 0.0
11/12:00pm 34.0 34.1 19.9 43 9.4 NNE 19 28 10 15 1010.5 1010.1 0.0
11/11:30am 33.0 33.8 19.9 46 8.7 NE 15 20 8 11 1010.8 1010.4 0.0
11/11:00am 33.4 35.2 21.8 50 7.9 NNE 15 20 8 11 1011.2 1010.8 0.0
11/10:30am 32.6 35.3 22.2 54 7.1 NNE 11 19 6 10 1011.4 1011.0 0.0
11/10:00am 32.1 35.1 22.6 57 6.5 NNE 11 19 6 10 1011.7 1011.3 0.0
11/09:30am 31.9 35.1 23.7 62 5.7 NE 13 19 7 10 1011.6 1011.2 0.0
11/09:00am 31.0 34.1 24.1 66 4.8 N 15 20 8 11 1011.3 1010.9 0.0
11/08:30am 31.1 33.8 24.1 66 4.9 NNE 17 24 9 13 1011.1 1010.7 0.0
11/08:00am 30.6 33.8 24.3 69 4.4 N 15 20 8 11 1011.0 1010.6 0.0
11/07:30am 29.7 33.4 24.6 74 3.6 N 13 15 7 8 1011.1 1010.7 0.0
11/07:00am 28.8 33.8 24.8 79 2.8 ENE 7 9 4 5 1011.3 1010.9 0.0
11/06:30am 26.9 33.3 24.9 89 1.4 CALM 0 0 0 0 1010.8 1010.4 0.0
11/06:00am 25.7 31.6 24.1 91 1.1 CALM 0 0 0 0 1010.4 1010.0 0.0
11/05:30am 25.5 31.5 24.2 92 0.9 CALM 0 0 0 0 1010.1 1009.7 0.0
11/05:00am 25.6 31.6 24.3 92 0.9 CALM 0 0 0 0 1009.7 1009.3 0.0
11/04:30am 25.6 31.4 23.9 90 1.2 CALM 0 0 0 0 1009.4 1009.0 0.0
11/04:00am 25.6 31.6 24.2 92 1.0 CALM 0 0 0 0 1009.1 1008.7 0.0
11/03:30am 26.0 32.0 24.3 90 1.2 CALM 0 0 0 0 1009.0 1008.6 0.0
11/03:00am 26.3 31.1 24.1 88 1.5 SSW 6 7 3 4 1009.1 1008.7 0.0
11/02:30am 27.0 33.2 24.6 87 1.7 CALM 0 6 0 3 1009.2 1008.8 0.0
11/02:00am 27.3 32.4 24.6 85 1.9 E 6 7 3 4 1009.3 1008.9 0.0
11/01:30am 27.5 32.3 24.5 84 2.1 NE 7 7 4 4 1009.5 1009.1 0.0
11/01:00am 27.1 33.2 24.4 85 1.9 CALM 0 0 0 0 1009.5 1009.1 0.0
11/12:30am 27.3 33.4 24.4 84 2.0 CALM 0 0 0 0 1010.0 1009.6 0.0
11/12:00am 27.6 33.7 24.4 83 2.2 CALM 0 0 0 0 1010.4 1010.0 0.0
 
Date/Time
CST
Temp
°C
App
Temp
°C
Dew
Point
°C
Rel
Hum
%
Delta-T
°C
Wind Press
QNH
hPa
Press
MSL
hPa
Rain since
9am
mm
Dir  Spd
km/h
Gust
km/h
Spd
kts
Gust
kts
10/11:30pm 27.7 33.8 24.4 82 2.3 CALM 0 0 0 0 1010.6 1010.2 0.0
10/11:00pm 28.2 32.9 24.3 79 2.7 ESE 7 9 4 5 1010.8 1010.4 0.0
10/10:30pm 28.1 32.7 24.2 79 2.7 SE 7 9 4 5 1010.9 1010.5 0.0
10/10:00pm 28.4 33.0 24.2 78 2.9 SSE 7 9 4 5 1010.7 1010.3 0.0
10/09:30pm 28.6 33.4 24.1 76 3.1 SE 6 9 3 5 1010.6 1010.2 0.0
10/09:00pm 28.9 33.3 23.8 74 3.5 ESE 7 11 4 6 1010.3 1009.9 0.0
10/08:30pm 29.1 32.6 23.6 72 3.8 E 11 13 6 7 1010.0 1009.6 0.0
10/08:00pm 29.5 33.0 23.6 70 4.1 ESE 11 15 6 8 1009.5 1009.1 0.0
10/07:30pm 29.5 33.8 23.7 71 4.0 SSE 7 13 4 7 1009.1 1008.7 0.0
10/07:00pm 29.8 33.7 23.6 69 4.3 SSE 9 17 5 9 1009.0 1008.6 0.0
10/06:30pm 30.4 32.9 23.1 65 5.0 SSE 15 20 8 11 1008.8 1008.4 0.0
10/06:00pm 31.2 33.1 22.8 61 5.8 SE 17 22 9 12 1008.5 1008.1 0.0
10/05:30pm 32.0 34.0 22.9 58 6.3 SE 17 26 9 14 1008.5 1008.1 0.0
10/05:00pm 32.3 33.7 22.5 56 6.7 SSE 19 28 10 15 1008.4 1008.0 0.0
10/04:30pm 32.8 34.4 22.8 55 6.9 SE 19 26 10 14 1008.3 1007.9 0.0
10/04:00pm 33.8 36.0 22.6 52 7.7 SSE 15 24 8 13 1008.4 1008.0 0.0
10/03:30pm 33.1 34.4 22.3 53 7.4 SE 19 26 10 14 1008.6 1008.2 0.0
10/03:00pm 33.0 34.4 22.9 55 7.0 S 20 32 11 17 1009.0 1008.6 0.0
10/02:30pm 34.2 35.8 22.8 51 7.9 SSE 19 28 10 15 1009.2 1008.8 0.0
10/02:00pm 34.2 35.1 21.9 48 8.4 SSE 20 28 11 15 1009.5 1009.1 0.0
10/01:30pm 34.5 35.2 21.2 46 9.0 ESE 19 30 10 16 1009.6 1009.2 0.0
10/01:00pm 34.0 35.5 21.3 47 8.6 SSE 15 24 8 13 1009.8 1009.4 0.0
10/12:30pm 33.7 34.1 21.0 47 8.6 ESE 20 28 11 15 1009.9 1009.5 0.0
10/12:00pm 35.1 35.5 18.9 38 10.7 ESE 15 24 8 13 1010.1 1009.7 0.0
10/11:30am 34.2 35.5 19.4 41 9.8 ENE 11 20 6 11 1010.3 1009.9 0.0
10/11:00am 34.1 34.7 18.5 39 10.2 E 13 20 7 11 1010.4 1010.0 0.0
10/10:30am 33.6 35.1 19.7 44 9.2 NE 11 19 6 10 1010.7 1010.3 0.0
10/10:00am 33.3 34.5 19.0 42 9.4 E 11 17 6 9 1010.9 1010.5 0.0
10/09:30am 32.6 32.7 19.2 45 8.8 ESE 17 22 9 12 1011.4 1011.0 0.0
10/09:00am 32.0 33.5 21.2 52 7.3 E 15 20 8 11 1011.0 1010.6 0.0
10/08:30am 31.3 33.0 21.7 56 6.5 ENE 15 19 8 10 1010.6 1010.2 0.0
10/08:00am 30.9 33.3 22.2 59 5.9 ENE 13 17 7 9 1010.4 1010.0 0.0
10/07:30am 29.5 33.3 23.4 69 4.2 ENE 9 11 5 6 1010.3 1009.9 0.0
10/07:00am 28.2 33.5 23.1 74 3.5 CALM 0 6 0 3 1010.2 1009.8 0.0
10/06:30am 25.9 30.9 22.5 81 2.3 CALM 0 0 0 0 1009.8 1009.4 0.0
10/06:00am 23.9 28.8 22.3 91 1.1 CALM 0 0 0 0 1009.5 1009.1 0.0
10/05:30am 23.7 28.5 22.1 91 1.1 CALM 0 0 0 0 1009.2 1008.8 0.0
10/05:00am 23.6 28.1 21.6 88 1.3 CALM 0 0 0 0 1008.8 1008.4 0.0
10/04:30am 23.9 28.4 21.6 87 1.5 CALM 0 0 0 0 1008.5 1008.1 0.0
10/04:00am 24.1 29.0 22.3 90 1.2 CALM 0 0 0 0 1008.4 1008.0 0.0
10/03:30am 24.1 28.8 22.0 88 1.4 CALM 0 0 0 0 1008.4 1008.0 0.0
10/03:00am 24.2 29.1 22.3 89 1.3 CALM 0 0 0 0 1008.5 1008.1 0.0
10/02:30am 24.5 29.4 22.3 87 1.5 CALM 0 0 0 0 1008.5 1008.1 0.0
10/02:00am 25.2 30.0 22.1 83 2.1 CALM 0 0 0 0 1008.8 1008.4 0.0
10/01:30am 25.5 30.6 22.7 84 1.9 CALM 0 0 0 0 1009.0 1008.6 0.0
10/01:00am 25.5 30.5 22.5 83 2.0 CALM 0 0 0 0 1009.4 1009.0 0.0
10/12:30am 26.1 31.2 22.7 81 2.3 CALM 0 0 0 0 1009.8 1009.4 0.0
10/12:00am 26.3 31.3 22.5 79 2.6 CALM 0 0 0 0 1010.2 1009.8 0.0

Other Formats:

Comma delimited format used in spreadsheet applications
http://www.bom.gov.au/fwo/IDD60801/IDD60801.94150.axf

JavaScript Object Notation format (JSON) in row-major order
http://www.bom.gov.au/fwo/IDD60801/IDD60801.94150.json